< < Back
Terminal Aerodrome Forecast


Current Version              Previous Versions:   1  2  3  4  5  6  7  8  9  

Terminal Aerodrome Forecast

061
FTUS44 KOHX 240100 AAB
TAFCSV
TAF AMD
KCSV 240109Z 2401/2424 19016G27KT P6SM VCSH BKN006 BKN012
      TEMPO 2401/2405 5SM SHRA
     FM240600 19013G22KT P6SM BKN015
     FM241100 21014G24KT P6SM VCSH BKN015
      TEMPO 2411/2415 -SHRA
     FM241500 24013G22KT P6SM SCT015 BKN025
     FM242000 25012KT P6SM BKN035=

Latest METAR

081
SAUS70 KWBC 241400 RRJ
MTRCSV
METAR KCSV 241353Z AUTO 21009G15KT 10SM FEW027 BKN040 OVC049 16/11 A2967
RMK AO2 SLP035 T01610106


USA.gov is the U.S. government's official web portal to all federal, state and local government web resources and services.